Tiempo atmosférico en la estación meteorológica de Valle de Hecho, Hecho, Huesca (855 m.)



Fecha
DESCASC
Temp. máxima en grados centígrados (hora)
DESCASC
Temp. mínima en grados centígrados (hora)
DESCASC
Temp. media en grados centígrados
DESCASC
Racha de viento máxima en m/sg (hora)
DESCASC
Velocidad máxima media en intervalos de 10 minutos(hora)
DESCASC
Precipitaciones diarias en mm
DESCASC
Precipitaciones de 00:00 a 06:00 en mm
DESCASC
Precipitaciones de 06:00 a 12:00 en mm
DESCASC
Precipitaciones de 12:00 a 18:00 en mm
DESCASC
Precipitaciones de 18:00 a 24:00 en mm
DESCASC
23-06-2019 30.1 (17:50) 10.9 (05:50) 20.5 8.61 (14:10) 4.44 (13:20) 0 0 0 0 0
22-06-2019 26 (17:30) 6 (07:00) 16 6.39 (15:40) 3.06 (15:40) 0 0 0 0 0
21-06-2019 19.7 (16:30) 13 (07:10) 16.4 7.78 (17:50) 4.72 (13:10) 11.4 4.2 7.2 0 0
20-06-2019 24.3 (14:20) 10.2 (00:00) 17.2 8.61 (19:20) 4.72 (16:00) 2.4 0 0 0 2.4
19-06-2019 -- (--) -- (--) -- -- (--) -- (--) -- -- -- -- 3
18-06-2019 -- (--) -- (--) -- -- (--) -- (--) -- 0 0 0 --
17-06-2019 27.9 (16:20) 8.3 (00:00) 18.1 7.78 (15:20) 3.61 (16:30) 0 0 0 0 0
16-06-2019 25.3 (17:20) 4.4 (00:00) 14.8 6.11 (16:10) 2.78 (20:50) 0 0 0 0 0
15-06-2019 20.6 (16:20) 9.8 (00:00) 15.2 11.94 (18:20) 5.28 (18:00) 0 0 0 0 0
14-06-2019 22.7 (18:20) 12.6 (00:00) 17.7 7.5 (00:40) 4.17 (00:10) 1 0 0 1 0
13-06-2019 22.7 (17:40) 7.7 (00:00) 15.2 10.56 (09:00) 5.56 (16:50) 0 0 0 0 0
12-06-2019 17.7 (18:40) 0.3 (00:00) 9 8.61 (17:00) 3.89 (15:50) 0 0 0 0 0
11-06-2019 13.9 (15:10) 6.6 (00:00) 10.2 10.28 (12:40) 6.11 (12:40) 2.4 2.2 0.2 0 0
10-06-2019 18.3 (14:20) 9.9 (00:00) 14.1 12.78 (02:10) 6.39 (02:00) 0.2 0.2 0 0 0
09-06-2019 24.2 (16:40) 13.9 (00:00) 19.1 13.06 (23:20) 5.83 (23:00) 0 0 0 0 0
08-06-2019 22.5 (17:50) 2.4 (00:00) 12.5 10.83 (12:50) 4.72 (13:40) 0 0 0 0 0
07-06-2019 17.6 (16:40) 8.1 (00:00) 12.9 15 (01:30) 7.78 (01:40) 7 0 7 0 0
06-06-2019 20 (17:40) 5 (00:00) 12.5 15 (14:20) 7.5 (14:30) 0 0 0 0 0
05-06-2019 13.9 (00:00) 7 (00:00) 10.4 11.39 (06:30) 6.39 (16:50) 40.8 2.4 37.8 0.6 0
04-06-2019 27.6 (16:20) 13.2 (00:00) 20.4 12.78 (19:50) 8.33 (19:50) 2.8 0 0 0 2.8
03-06-2019 27.9 (17:10) 12.4 (00:00) 20.1 9.44 (12:00) 4.72 (12:00) 0 0 0 0 0
02-06-2019 29.7 (17:10) 8.9 (00:00) 19.3 7.5 (18:10) 2.78 (13:20) 0 0 0 0 0
01-06-2019 28.1 (17:10) 9.5 (00:00) 18.8 6.39 (13:20) 2.78 (18:00) 0 0 0 0 0
31-05-2019 26.6 (17:10) 5 (00:00) 15.8 6.67 (18:50) 4.17 (19:00) 0 0 0 0 0
30-05-2019 24.3 (17:00) 4.1 (00:00) 14.2 11.11 (21:30) 5.83 (15:00) 0 0 0 0 0
29-05-2019 14.8 (16:10) 7.1 (00:00) 11 17.22 (13:40) 8.89 (11:50) 0.2 0.2 0 0 0
28-05-2019 14.1 (13:20) 7.8 (00:00) 11 15.28 (12:30) 8.89 (11:20) 0.2 0 0 0 0.2
27-05-2019 19.5 (14:10) 5.4 (00:00) 12.5 13.33 (23:30) 7.5 (17:10) 0 0 0 0 0

Gráficas

Temp. máximas Temp. mínimas Temp. medias Precipitaciones Rachas de viento máximas Velocidades máximas media en intervalos de 10 minutos

Datos horarios

Fecha y hora oficial Temperatura (ºC) Velocidad del viento (km/h) Dirección del viento Racha (km/h) Dirección de racha Precipitación (mm) Presión (hPa) Tendencia (hPa) Humedad (%)
2019-06-25 23:00:00 21.2 0 Calma 4 Noroeste 0 -- -- 67
2019-06-25 22:00:00 23.1 3 Noroeste 13 Noroeste 0 -- -- 62
2019-06-25 21:00:00 26.3 3 Nordeste 8 Nordeste 0 -- -- 51
2019-06-25 20:00:00 29.6 5 Norte 9 Oeste 0 -- -- 43
2019-06-25 19:00:00 30.3 8 Oeste 23 Sudoeste 0 -- -- 38
2019-06-25 18:00:00 31.5 14 Sudoeste 27 Sudoeste 0 -- -- 34
2019-06-25 17:00:00 31.2 13 Sudoeste 28 Sudoeste 0 -- -- 37
2019-06-25 16:00:00 30.7 12 Sudoeste 34 Sudoeste 0 -- -- 39
2019-06-25 15:00:00 30.4 17 Sudoeste 30 Sudoeste 0 -- -- 38
2019-06-25 14:00:00 30.3 16 Sudoeste 31 Sur 0 -- -- 38
2019-06-25 13:00:00 29 15 Sudoeste 27 Sur 0 -- -- 39
2019-06-25 12:00:00 27.7 9 Sudoeste 15 Sudoeste 0 -- -- 42
2019-06-25 11:00:00 24.9 5 Sur 10 Sur 0 -- -- 49
2019-06-25 10:00:00 21.2 2 Este 7 Nordeste 0 -- -- 64
2019-06-25 09:00:00 17.7 2 Este 5 Nordeste 0 -- -- 70
2019-06-25 08:00:00 13.9 0 Calma 4 Sudoeste 0 -- -- 83
2019-06-25 07:00:00 13 0 Calma 5 Sudoeste 0 -- -- 83
2019-06-25 06:00:00 13.5 0 Calma 6 Sudoeste 0 -- -- 81
2019-06-25 05:00:00 13.8 0 Calma 5 Sudoeste 0 -- -- 80
2019-06-25 04:00:00 14.5 3 Norte 8 Sudoeste 0 -- -- 78
2019-06-25 03:00:00 15 2 Nordeste 10 Sudoeste 0 -- -- 76
2019-06-25 02:00:00 16.2 0 Calma 4 Sur 0 -- -- 73
2019-06-25 01:00:00 17.2 3 Sudoeste 9 Nordeste 0 -- -- 71
2019-06-25 00:00:00 18.3 0 Calma 10 Nordeste 0 -- -- 66
2019-06-24 23:00:00 19.5 3 Nordeste 8 Este 0 -- -- 62
2019-06-24 22:00:00 21.3 3 Noroeste 5 Sudoeste 0 -- -- 56
2019-06-24 21:00:00 23.9 2 Nordeste 8 Nordeste 0 -- -- 50
2019-06-24 20:00:00 26.7 5 Oeste 26 Sudoeste 0 -- -- 36
2019-06-24 19:00:00 28.6 12 Sudoeste 30 Sur 0 -- -- 30
2019-06-24 18:00:00 29.4 14 Sudoeste 35 Sur 0 -- -- 28
2019-06-24 17:00:00 29 18 Sudoeste 34 Sudoeste 0 -- -- 30
2019-06-24 16:00:00 28.7 19 Sur 40 Sudeste 0 -- -- 28
2019-06-24 15:00:00 28.9 17 Sur 35 Sudeste 0 -- -- 29
2019-06-24 14:00:00 28.4 17 Sudoeste 41 Sudoeste 0 -- -- 29
2019-06-24 13:00:00 28.3 16 Sur 41 Sudoeste 0 -- -- 29
2019-06-24 12:00:00 27.9 16 Sur 46 Sudoeste 0 -- -- 30
2019-06-24 11:00:00 27.2 15 Sur 44 Sudeste 0 -- -- 29
2019-06-24 10:00:00 25.6 14 Sur 31 Sudoeste 0 -- -- 38
2019-06-24 09:00:00 20.5 5 Oeste 13 Sudoeste 0 -- -- 56
2019-06-24 08:00:00 17.6 2 Nordeste 7 Nordeste 0 -- -- 60
2019-06-24 07:00:00 18.9 3 Nordeste 15 Sudoeste 0 -- -- 48
2019-06-24 06:00:00 22.3 10 Sudoeste 30 Sur 0 -- -- 37
2019-06-24 05:00:00 22.2 12 Sur 26 Sudoeste 0 -- -- 37
2019-06-24 04:00:00 18.6 8 Sudoeste 15 Sur 0 -- -- 60
2019-06-24 03:00:00 16.9 2 Norte 6 Este 0 -- -- 72
2019-06-24 02:00:00 17.2 3 Nordeste 5 Nordeste 0 -- -- 73
2019-06-24 01:00:00 18 2 Noroeste 4 Noroeste 0 -- -- 71
2019-06-24 00:00:00 19.1 0 Calma 7 Norte 0 -- -- 70
2019-06-23 23:00:00 20.6 0 Calma 6 Nordeste 0 -- -- 65
2019-06-23 22:00:00 22.4 3 Noroeste 7 Este 0 -- -- 59
2019-06-23 21:00:00 24.7 4 Nordeste 9 Nordeste 0 -- -- 53
2019-06-23 20:00:00 28 3 Este 10 Sudeste 0 -- -- 42
2019-06-23 19:00:00 28.9 7 Sur 20 Sudoeste 0 -- -- 33
2019-06-23 18:00:00 30 12 Sudoeste 28 Sur 0 -- -- 32
2019-06-23 17:00:00 29.5 14 Sudoeste 24 Sudoeste 0 -- -- 32
2019-06-23 16:00:00 29.5 8 Sudoeste 27 Sur 0 -- -- 36
2019-06-23 15:00:00 29 12 Sur 31 Sur 0 -- -- 34
2019-06-23 14:00:00 28.9 14 Sudoeste 30 Sudoeste 0 -- -- 39
2019-06-23 13:00:00 28 14 Sudoeste 27 Sur 0 -- -- 42
2019-06-23 12:00:00 27 13 Sudoeste 28 Sudoeste 0 -- -- 43
2019-06-23 11:00:00 25.8 11 Sur 23 Sudoeste 0 -- -- 48
2019-06-23 10:00:00 21.5 3 Nordeste 9 Nordeste 0 -- -- 57
2019-06-23 09:00:00 16.5 3 Nordeste 5 Este 0 -- -- 74
2019-06-23 08:00:00 12.3 0 Calma 4 Sudoeste 0 -- -- 89
2019-06-23 07:00:00 10.9 2 Oeste 5 Sudoeste 0 -- -- 88
2019-06-23 06:00:00 11 0 Calma 6 Oeste 0 -- -- 88
2019-06-23 05:00:00 11.4 0 Calma 5 Sudeste 0 -- -- 86
2019-06-23 04:00:00 11.6 0 Calma 5 Sudoeste 0 -- -- 86
2019-06-23 03:00:00 12.2 2 Norte 5 Noroeste 0 -- -- 84
2019-06-23 02:00:00 13.1 2 Sudeste 5 Sudoeste 0 -- -- 81
2019-06-23 01:00:00 13.4 4 Nordeste 8 Nordeste 0 -- -- 82
2019-06-23 00:00:00 14.9 3 Sudoeste 5 Sudoeste 0 -- -- 77
2019-06-22 23:00:00 16.5 0 Calma 6 Noroeste 0 -- -- 69
2019-06-22 22:00:00 19.1 2 Oeste 17 Norte 0 -- -- 62
2019-06-22 21:00:00 21.1 6 Norte 13 Norte 0 -- -- 50
2019-06-22 20:00:00 24.9 8 Sudoeste 13 Sur 0 -- -- 37
2019-06-22 19:00:00 25.5 9 Sudeste 18 Sudeste 0 -- -- 38
2019-06-22 18:00:00 25.9 4 Noroeste 20 Sudoeste 0 -- -- 37
2019-06-22 17:00:00 25.9 7 Sudoeste 17 Sudoeste 0 -- -- 36
2019-06-22 16:00:00 25.2 4 Sur 23 Sur 0 -- -- 36
2019-06-22 15:00:00 24.7 6 Sur 21 Sudoeste 0 -- -- 42
2019-06-22 14:00:00 23.7 7 Este 19 Sudoeste 0 -- -- 45
2019-06-22 13:00:00 23.2 6 Sudeste 19 Sur 0 -- -- 45
2019-06-22 12:00:00 22.2 5 Sur 12 Sudeste 0 -- -- 50
2019-06-22 11:00:00 18.9 4 Nordeste 9 Este 0 -- -- 61
2019-06-22 10:00:00 15 6 Nordeste 10 Este 0 -- -- 69
2019-06-22 09:00:00 11 4 Este 6 Nordeste 0 -- -- 87
2019-06-22 08:00:00 6.7 0 Calma 6 Nordeste 0 -- -- 96
2019-06-22 07:00:00 6 2 Este 8 Noroeste 0 -- -- 95
2019-06-22 06:00:00 6.5 0 Calma 4 Sudoeste 0 -- -- 93
2019-06-22 05:00:00 7.3 2 Sudoeste 4 Nordeste 0 -- -- 93
2019-06-22 04:00:00 7.9 0 Calma 4 Este 0 -- -- 92
2019-06-22 03:00:00 8.7 0 Calma 4 Sudoeste 0 -- -- 91
2019-06-22 02:00:00 9.6 0 Calma 4 Nordeste 0 -- -- 90
2019-06-22 01:00:00 10.9 0 Calma 8 Este 0 -- -- 85
2019-06-22 00:00:00 13.2 4 Nordeste 21 Nordeste 0 -- -- 73
2019-06-21 23:00:00 14.3 9 Nordeste 27 Nordeste 0 -- -- 67
2019-06-21 22:00:00 15.2 10 Noroeste 26 Norte 0 -- -- 65
2019-06-21 21:00:00 16.4 11 Noroeste 26 Noroeste 0 -- -- 63
2019-06-21 20:00:00 18.2 10 Norte 27 Nordeste 0 -- -- 59
2019-06-21 19:00:00 18.4 10 Norte 25 Nordeste 0 -- -- 60
2019-06-21 18:00:00 18.9 12 Norte 28 Norte 0 -- -- 59
2019-06-21 17:00:00 18.8 12 Nordeste 23 Oeste 0 -- -- 61
2019-06-21 16:00:00 19.3 8 Nordeste 22 Noroeste 0 -- -- 62
2019-06-21 15:00:00 19.3 9 Oeste 24 Noroeste 0 -- -- 67
2019-06-21 14:00:00 17.7 8 Oeste 27 Oeste 0 -- -- 77
2019-06-21 13:00:00 15.5 15 Oeste 25 Oeste 0 -- -- 82
2019-06-21 12:00:00 15.6 11 Oeste 22 Oeste 0 -- -- 85
2019-06-21 11:00:00 14.7 6 Oeste 23 Oeste 0 -- -- 90
2019-06-21 10:00:00 14.3 3 Este 10 Sudoeste 0 -- -- 94
2019-06-21 09:00:00 13.5 2 Sur 19 Oeste 5.2 -- -- 95
2019-06-21 08:00:00 13.2 0 Calma 10 Noroeste 0 -- -- 95
2019-06-21 07:00:00 13.1 3 Sur 11 Sudeste 2 -- -- 95
2019-06-21 06:00:00 13.2 0 Calma 11 Noroeste 0.4 -- -- 95
2019-06-21 05:00:00 13.4 0 Calma 15 Sudoeste 1.4 -- -- 94
2019-06-21 04:00:00 13.7 5 Este 13 Noroeste 0.4 -- -- 91
2019-06-21 03:00:00 13.8 6 Norte 14 Nordeste 1.2 -- -- 93
2019-06-21 02:00:00 13.7 7 Oeste 12 Este 0.2 -- -- 92
2019-06-21 01:00:00 14.1 8 Sudoeste 22 Noroeste 0.6 -- -- 90
2019-06-21 00:00:00 14.6 9 Norte 21 Sudeste 2.4 -- -- 88
2019-06-20 23:00:00 16.5 9 Nordeste 28 Norte 0 -- -- 71
2019-06-20 22:00:00 17.6 13 Noroeste 28 Nordeste 0 -- -- 64
2019-06-20 21:00:00 18.1 10 Noroeste 27 Noroeste 0 -- -- 67
2019-06-20 20:00:00 19.2 11 Norte 31 Nordeste 0 -- -- 62
2019-06-20 19:00:00 20.7 12 Norte 29 Nordeste 0 -- -- 59
2019-06-20 18:00:00 20.4 15 Nordeste 24 Norte 0 -- -- 59
2019-06-20 17:00:00 23.8 8 Noroeste 24 Noroeste 0 -- -- 53
2019-06-20 16:00:00 22.4 17 Noroeste 27 Oeste 0 -- -- 57
2019-06-20 15:00:00 23.5 8 Sudoeste 20 Sudoeste 0 -- -- 53
2019-06-20 14:00:00 23.6 6 Sudoeste 18 Oeste 0 -- -- 55
2019-06-20 13:00:00 20.9 3 Sur 6 Sudeste 0 -- -- 67
2019-06-20 12:00:00 17.1 3 Este 7 Nordeste 0 -- -- 78
2019-06-20 11:00:00 15.3 4 Nordeste 7 Nordeste 0 -- -- 83
2019-06-20 10:00:00 13.7 0 Calma 6 Nordeste 0 -- -- 92
2019-06-20 09:00:00 11.9 5 Nordeste 8 Oeste 0 -- -- 97
2019-06-20 08:00:00 10.5 0 Calma 4 Sudeste 0 -- -- 96
2019-06-20 07:00:00 10.3 2 Oeste 6 Sudeste 0 -- -- 94
2019-06-20 06:00:00 10.8 0 Calma 4 Sur 0 -- -- 94
2019-06-20 05:00:00 11.6 0 Calma 8 Nordeste 0 -- -- 94
2019-06-20 04:00:00 11.9 4 Nordeste 8 Oeste 0 -- -- 93
2019-06-20 03:00:00 13 3 Sur 8 Nordeste 0 -- -- 90
2019-06-20 02:00:00 14 3 Sur 19 Noroeste 0 -- -- 88
2019-06-20 01:00:00 15.1 7 Noroeste 22 Norte 0 -- -- 84
2019-06-20 00:00:00 15.7 13 Noroeste 39 Sudoeste 2.8 -- -- 85
2019-06-19 23:00:00 19.6 5 Noroeste 21 Nordeste 0.2 -- -- 64
2019-06-19 22:00:00 20.1 9 Noroeste 21 Noroeste 0 -- -- 57
2019-06-19 21:00:00 20.8 9 Norte 16 Norte 0 -- -- 53
2019-06-19 20:00:00 23 4 Norte 10 Oeste 0 -- -- 45
2019-06-19 19:00:00 24 5 Noroeste 13 Noroeste 0 -- -- 42
2019-06-19 18:00:00 23.9 4 Noroeste 19 Sur 0 -- -- 44
2019-06-19 17:00:00 24.1 5 Sudoeste 22 Sudoeste 0 -- -- 39
2019-06-19 16:00:00 24.6 13 Sudoeste 29 Noroeste 0 -- -- 40
2019-06-19 15:00:00 24.8 6 Sudeste 23 Sudoeste 0 -- -- 41
2019-06-19 14:00:00 -- -- -- -- -- -- -- -- --
2019-06-19 13:00:00 23.9 11 Sudoeste -- -- -- -- -- 39
2019-06-19 12:00:00 -- -- -- -- -- -- -- -- --
2019-06-19 11:00:00 -- -- -- -- -- -- -- -- --
2019-06-19 10:00:00 -- -- -- -- -- -- -- -- --
2019-06-19 09:00:00 -- -- -- -- -- -- -- -- --
2019-06-19 08:00:00 -- -- -- -- -- -- -- -- --
2019-06-19 07:00:00 -- -- -- -- -- -- -- -- --
2019-06-19 06:00:00 -- -- -- -- -- -- -- -- --
2019-06-19 05:00:00 -- -- -- -- -- -- -- -- --
2019-06-19 04:00:00 -- -- -- -- -- -- -- -- --
2019-06-19 03:00:00 -- -- -- -- -- -- -- -- --
2019-06-19 02:00:00 -- -- -- -- -- -- -- -- --
2019-06-19 01:00:00 -- -- -- -- -- -- -- -- --
2019-06-19 00:00:00 -- -- -- -- -- -- -- -- --
2019-06-18 23:00:00 -- -- -- -- -- -- -- -- --
2019-06-18 22:00:00 -- -- -- -- -- -- -- -- --
2019-06-18 21:00:00 -- -- -- -- -- -- -- -- --
2019-06-18 20:00:00 -- -- -- -- -- -- -- -- --
2019-06-18 19:00:00 27.8 9 Sur 31 Sudoeste 0 -- -- 29
2019-06-18 18:00:00 28.6 14 Sur 39 Sudoeste 0 -- -- 27
2019-06-18 17:00:00 27.6 18 Sudoeste 45 Sudoeste 0 -- -- 29
2019-06-18 16:00:00 28.6 15 Sur 36 Sudoeste 0 -- -- 29
2019-06-18 15:00:00 27.8 19 Sudoeste 34 Sudoeste 0 -- -- 32
2019-06-18 14:00:00 26.7 14 Sur 36 Sur 0 -- -- 36
2019-06-18 13:00:00 26.2 14 Sudoeste 36 Sudoeste 0 -- -- 35
2019-06-18 12:00:00 26.1 19 Sudoeste 36 Sudoeste 0 -- -- 33
2019-06-18 11:00:00 25.8 10 Sudeste 22 Sudeste 0 -- -- 32
2019-06-18 10:00:00 22.5 4 Este 14 Nordeste 0 -- -- 46
2019-06-18 09:00:00 18 9 Nordeste 14 Nordeste 0 -- -- 62
2019-06-18 08:00:00 14.3 2 Noroeste 8 Nordeste 0 -- -- 69
2019-06-18 07:00:00 14.9 3 Noroeste 10 Nordeste 0 -- -- 63
2019-06-18 06:00:00 14.3 2 Noroeste 8 Nordeste 0 -- -- 63
2019-06-18 05:00:00 13.8 3 Norte 9 Nordeste 0 -- -- 67
2019-06-18 04:00:00 14.1 3 Noroeste 9 Este 0 -- -- 66
2019-06-18 03:00:00 14.2 3 Noroeste 9 Sudoeste 0 -- -- 67
2019-06-18 02:00:00 13.8 3 Nordeste 5 Nordeste 0 -- -- 67
2019-06-18 01:00:00 14.4 2 Nordeste 5 Nordeste 0 -- -- 65
2019-06-18 00:00:00 15.6 2 Sudoeste 4 Sur 0 -- -- 58
2019-06-17 23:00:00 17.5 0 Calma 4 Oeste 0 -- -- 55
2019-06-17 22:00:00 20.1 2 Sudeste 18 Norte 0 -- -- 47
2019-06-17 21:00:00 22.8 8 Norte 16 Norte 0 -- -- 36
2019-06-17 20:00:00 26.1 2 Sudoeste 19 Sudoeste 0 -- -- 31
2019-06-17 19:00:00 27.4 6 Sudeste 24 Sudoeste 0 -- -- 26
2019-06-17 18:00:00 27.8 11 Sudoeste 24 Sudoeste 0 -- -- 26
2019-06-17 17:00:00 27.9 10 Sur 25 Sur 0 -- -- 25
2019-06-17 16:00:00 27.5 9 Sudoeste 28 Oeste 0 -- -- 27
2019-06-17 15:00:00 27.2 7 Sur 24 Sudoeste 0 -- -- 31
2019-06-17 14:00:00 26.1 9 Sudoeste 25 Sudoeste 0 -- -- 34
2019-06-17 13:00:00 25.8 13 Sudoeste 26 Sur 0 -- -- 34
2019-06-17 12:00:00 25.5 9 Sudoeste 17 Sur 0 -- -- 34
2019-06-17 11:00:00 22.7 4 Sudoeste 7 Sudoeste 0 -- -- 42
2019-06-17 10:00:00 18.4 5 Nordeste 8 Este 0 -- -- 54
2019-06-17 09:00:00 14 2 Este 4 Este 0 -- -- 71
2019-06-17 08:00:00 9.3 0 Calma 3 Sudoeste 0 -- -- 86
2019-06-17 07:00:00 8.4 0 Calma 5 Sudoeste 0 -- -- 85
2019-06-17 06:00:00 8.7 4 Oeste 5 Sudoeste 0 -- -- 83
2019-06-17 05:00:00 9.3 2 Sudoeste 6 Noroeste 0 -- -- 83
2019-06-17 04:00:00 10.2 0 Calma 4 Nordeste 0 -- -- 79
2019-06-17 03:00:00 11.1 2 Sur 6 Sudoeste 0 -- -- 76
2019-06-17 02:00:00 11.7 4 Sudoeste 10 Sudoeste 0 -- -- 76
2019-06-17 01:00:00 12.9 5 Sudoeste 8 Sudoeste 0 -- -- 70
2019-06-17 00:00:00 14.1 0 Calma 4 Este 0 -- -- 65
2019-06-16 23:00:00 15.7 0 Calma 6 Nordeste 0 -- -- 60
2019-06-16 22:00:00 18.5 6 Nordeste 17 Norte 0 -- -- 47
2019-06-16 21:00:00 20.9 8 Norte 15 Norte 0 -- -- 40
2019-06-16 20:00:00 23.8 4 Oeste 15 Sur 0 -- -- 35
2019-06-16 19:00:00 24.7 6 Sur 17 Sur 0 -- -- 30
2019-06-16 18:00:00 25.2 5 Sudoeste 19 Sudoeste 0 -- -- 33
2019-06-16 17:00:00 25 6 Oeste 22 Sur 0 -- -- 31
2019-06-16 16:00:00 24.4 5 Oeste 20 Sur 0 -- -- 35
2019-06-16 15:00:00 23.7 5 Sudoeste 19 Sur 0 -- -- 35
2019-06-16 14:00:00 23.2 8 Sur 19 Sur 0 -- -- 35
2019-06-16 13:00:00 22.5 6 Sur 18 Sur 0 -- -- 37
2019-06-16 12:00:00 22.1 8 Sur 19 Sur 0 -- -- 37
2019-06-16 11:00:00 19.5 3 Sur 8 Este 0 -- -- 43
2019-06-16 10:00:00 15 5 Nordeste 8 Nordeste 0 -- -- 56
2019-06-16 09:00:00 10.2 3 Este 6 Este 0 -- -- 69
2019-06-16 08:00:00 5.6 0 Calma 4 Noroeste 0 -- -- 93
2019-06-16 07:00:00 4.4 0 Calma 4 Sudoeste 0 -- -- 89
2019-06-16 06:00:00 5 2 Oeste 5 Sudoeste 0 -- -- 89
2019-06-16 05:00:00 5.6 2 Norte 5 Sudeste 0 -- -- 85
2019-06-16 04:00:00 6.3 0 Calma 5 Sudoeste 0 -- -- 86
2019-06-16 03:00:00 7.4 3 Sudoeste 8 Sur 0 -- -- 84
2019-06-16 02:00:00 8.5 3 Sudoeste 9 Sur 0 -- -- 82
2019-06-16 01:00:00 10.2 3 Sudoeste 20 Norte 0 -- -- 73
2019-06-16 00:00:00 12.8 10 Nordeste 32 Nordeste 0 -- -- 60
2019-06-15 23:00:00 13.3 10 Norte 29 Nordeste 0 -- -- 60
2019-06-15 22:00:00 13.4 14 Noroeste 37 Noroeste 0 -- -- 60
2019-06-15 21:00:00 13.9 17 Noroeste 37 Norte 0 -- -- 60
2019-06-15 20:00:00 15.2 15 Norte 38 Nordeste 0 -- -- 57
2019-06-15 19:00:00 15.9 17 Norte 43 Nordeste 0 -- -- 59
2019-06-15 18:00:00 17.8 19 Norte 38 Norte 0 -- -- 54
2019-06-15 17:00:00 20.5 6 Noroeste 27 Oeste 0 -- -- 44
2019-06-15 16:00:00 20.3 14 Oeste 27 Oeste 0 -- -- 45
2019-06-15 15:00:00 20.2 10 Oeste 27 Oeste 0 -- -- 45
2019-06-15 14:00:00 19.8 12 Oeste 28 Oeste 0 -- -- 47
2019-06-15 13:00:00 19.5 9 Noroeste 23 Oeste 0 -- -- 52
2019-06-15 12:00:00 17.7 9 Sudoeste 22 Noroeste 0 -- -- 56
2019-06-15 11:00:00 17.5 6 Sur 13 Sudeste 0 -- -- 61
2019-06-15 10:00:00 15.6 5 Sur 10 Sudeste 0 -- -- 68
2019-06-15 09:00:00 12.8 5 Sudeste 11 Sur 0 -- -- 78
2019-06-15 08:00:00 10.9 4 Sudeste 12 Sudoeste 0 -- -- 85
2019-06-15 07:00:00 10.7 5 Sudoeste 12 Oeste 0 -- -- 87
2019-06-15 06:00:00 9.9 3 Sudeste 9 Sudoeste 0 -- -- 91
2019-06-15 05:00:00 10.8 0 Calma 7 Sur 0 -- -- 89
2019-06-15 04:00:00 11.3 2 Nordeste 19 Oeste 0 -- -- 85
2019-06-15 03:00:00 12 13 Oeste 26 Oeste 0 -- -- 83
2019-06-15 02:00:00 12.3 2 Sudoeste 6 Sudoeste 0 -- -- 85
2019-06-15 01:00:00 12.7 4 Nordeste 5 Nordeste 0 -- -- 84
2019-06-15 00:00:00 13.6 0 Calma 5 Este 0 -- -- 80
2019-06-14 23:00:00 14.6 0 Calma 8 Nordeste 0 -- -- 74
2019-06-14 22:00:00 16.2 0 Calma 8 Oeste 0 -- -- 70
2019-06-14 21:00:00 19 0 Calma 9 Oeste 0 -- -- 59
2019-06-14 20:00:00 21.4 5 Oeste 15 Sur 0 -- -- 50
2019-06-14 19:00:00 22.6 7 Sur 18 Sudoeste 0 -- -- 42
2019-06-14 18:00:00 22.4 8 Sudoeste 18 Sur 0 -- -- 46
2019-06-14 17:00:00 21.8 8 Sudoeste 18 Sudoeste 0 -- -- 50
2019-06-14 16:00:00 19.1 4 Sudoeste 10 Sur 0 -- -- 63
2019-06-14 15:00:00 15.8 4 Sur 16 Sudoeste 0.2 -- -- 78
2019-06-14 14:00:00 14.4 9 Noroeste 19 Este 0.8 -- -- 82
2019-06-14 13:00:00 17.3 5 Sur 16 Sur 0 -- -- 63
2019-06-14 12:00:00 16.9 3 Sudeste 9 Sudoeste 0 -- -- 63
2019-06-14 11:00:00 16.5 3 Este 6 Sur 0 -- -- 65
2019-06-14 10:00:00 16.4 3 Sudoeste 10 Sudoeste 0 -- -- 65
2019-06-14 09:00:00 14.7 4 Sur 12 Sudoeste 0 -- -- 69
2019-06-14 08:00:00 13.1 0 Calma 9 Noroeste 0 -- -- 74
2019-06-14 07:00:00 12.9 0 Calma 13 Norte 0 -- -- 71
2019-06-14 06:00:00 12.9 6 Noroeste 12 Oeste 0 -- -- 69
2019-06-14 05:00:00 13.7 0 Calma 11 Oeste 0 -- -- 65
2019-06-14 04:00:00 14.5 0 Calma 12 Oeste 0 -- -- 60
2019-06-14 03:00:00 16.8 10 Oeste 22 Sudoeste 0 -- -- 50
2019-06-14 02:00:00 17.9 13 Sudoeste 27 Sur 0 -- -- 48
2019-06-14 01:00:00 18.3 14 Sudoeste 27 Sur 0 -- -- 46
2019-06-14 00:00:00 18.5 14 Sudoeste 28 Sudoeste 0 -- -- 47
2019-06-13 23:00:00 18.8 12 Sudoeste 30 Sur 0 -- -- 49
2019-06-13 22:00:00 19.7 12 Sur 29 Sudoeste 0 -- -- 47
2019-06-13 21:00:00 20.8 8 Sur 28 Sudeste 0 -- -- 42
2019-06-13 20:00:00 21.3 15 Sur 34 Sur 0 -- -- 39
2019-06-13 19:00:00 21.7 14 Sur 36 Sudeste 0 -- -- 41
2019-06-13 18:00:00 22.2 19 Sudeste 37 Sudeste 0 -- -- 43
2019-06-13 17:00:00 22.4 17 Sudeste 37 Sur 0 -- -- 41
2019-06-13 16:00:00 22.3 19 Sudoeste 36 Sur 0 -- -- 41
2019-06-13 15:00:00 20.7 14 Sur 38 Sudeste 0 -- -- 47
2019-06-13 14:00:00 18.8 15 Sur 30 Sudeste 0 -- -- 50
2019-06-13 13:00:00 16.9 12 Este 25 Este 0 -- -- 51
2019-06-13 12:00:00 15.8 10 Sudeste 32 Sur 0 -- -- 51
2019-06-13 11:00:00 14.5 10 Sudoeste 29 Sur 0 -- -- 49
2019-06-13 10:00:00 14.5 12 Sur 37 Sudoeste 0 -- -- 44
2019-06-13 09:00:00 14.5 19 Sudoeste 38 Sudoeste 0 -- -- 47
2019-06-13 08:00:00 13.7 17 Sudoeste 31 Sudoeste 0 -- -- 48
2019-06-13 07:00:00 12.6 14 Sudoeste 28 Sudoeste 0 -- -- 51
2019-06-13 06:00:00 9.2 9 Sur 21 Sudoeste 0 -- -- 64
2019-06-13 05:00:00 8.4 3 Sudeste 19 Sudoeste 0 -- -- 67
2019-06-13 04:00:00 9 6 Sudoeste 12 Sudoeste 0 -- -- 64
2019-06-13 03:00:00 8.1 0 Calma 6 Oeste 0 -- -- 69
2019-06-13 02:00:00 8.1 0 Calma 9 Este 0 -- -- 77
2019-06-13 01:00:00 9 0 Calma 7 Sudoeste 0 -- -- 74
2019-06-13 00:00:00 10 2 Nordeste 7 Sudoeste 0 -- -- 73
2019-06-12 23:00:00 11.1 0 Calma 5 Sur 0 -- -- 67
2019-06-12 22:00:00 12.1 2 Sudoeste 4 Sur 0 -- -- 61
2019-06-12 21:00:00 14.6 3 Nordeste 7 Sudeste 0 -- -- 51
2019-06-12 20:00:00 16.3 4 Oeste 12 Sur 0 -- -- 44
2019-06-12 19:00:00 17.5 6 Noroeste 15 Oeste 0 -- -- 35
2019-06-12 18:00:00 17.2 7 Sur 24 Sudoeste 0 -- -- 35
2019-06-12 17:00:00 17.5 12 Sudoeste 31 Sudoeste 0 -- -- 33
2019-06-12 16:00:00 16.8 8 Sur 27 Sur 0 -- -- 34
2019-06-12 15:00:00 16.2 5 Sur 24 Sur 0 -- -- 37
2019-06-12 14:00:00 15.1 12 Sur 24 Sudoeste 0 -- -- 36
2019-06-12 13:00:00 14.5 7 Sur 22 Sudoeste 0 -- -- 42
2019-06-12 12:00:00 13.1 5 Nordeste 20 Nordeste 0 -- -- 46
2019-06-12 11:00:00 11.6 10 Sudoeste 19 Nordeste 0 -- -- 45
2019-06-12 10:00:00 10.1 10 Sudeste 17 Sudeste 0 -- -- 55
2019-06-12 09:00:00 6 3 Nordeste 6 Este 0 -- -- 78
2019-06-12 08:00:00 1.7 2 Sudeste 5 Nordeste 0 -- -- 95
2019-06-12 07:00:00 0.4 3 Noroeste 8 Noroeste 0 -- -- 92
2019-06-12 06:00:00 1 6 Sudoeste 10 Sudoeste 0 -- -- 92
2019-06-12 05:00:00 1.5 0 Calma 6 Noroeste 0 -- -- 90
2019-06-12 04:00:00 1.9 4 Norte 10 Noroeste 0 -- -- 89
2019-06-12 03:00:00 3.1 0 Calma 12 Norte 0 -- -- 86
2019-06-12 02:00:00 4.3 5 Nordeste 10 Norte 0 -- -- 83
2019-06-12 01:00:00 5.5 3 Norte 13 Norte 0 -- -- 78
2019-06-12 00:00:00 6.9 4 Sudeste 27 Noroeste 0 -- -- 70
2019-06-11 23:00:00 7.4 18 Noroeste 27 Noroeste 0 -- -- 69
2019-06-11 22:00:00 8 16 Noroeste 27 Noroeste 0 -- -- 68
2019-06-11 21:00:00 9 15 Noroeste 30 Noroeste 0 -- -- 61
2019-06-11 20:00:00 10.3 13 Noroeste 36 Noroeste 0 -- -- 57
2019-06-11 19:00:00 11.5 18 Noroeste 35 Oeste 0 -- -- 52
2019-06-11 18:00:00 12.1 19 Noroeste 29 Noroeste 0 -- -- 57
2019-06-11 17:00:00 12 6 Nordeste 33 Este 0 -- -- 55
2019-06-11 16:00:00 12.8 14 Noroeste 29 Noroeste 0 -- -- 49
2019-06-11 15:00:00 13.7 12 Noroeste 32 Noroeste 0 -- -- 51
2019-06-11 14:00:00 12.5 19 Noroeste 35 Oeste 0 -- -- 54
2019-06-11 13:00:00 11.7 17 Oeste 37 Oeste 0 -- -- 62
2019-06-11 12:00:00 11.6 18 Oeste 30 Oeste 0 -- -- 63
2019-06-11 11:00:00 11 10 Oeste 24 Noroeste 0 -- -- 67
2019-06-11 10:00:00 9.1 16 Noroeste 25 Oeste 0 -- -- 79
2019-06-11 09:00:00 8 11 Noroeste 21 Oeste 0 -- -- 82
2019-06-11 08:00:00 6.8 2 Norte 9 Norte 0.2 -- -- 92
2019-06-11 07:00:00 6.6 2 Norte 8 Sudeste 0 -- -- 92
2019-06-11 06:00:00 6.9 3 Norte 10 Sudeste 0.2 -- -- 91
2019-06-11 05:00:00 7.1 0 Calma 5 Este 0.8 -- -- 91
2019-06-11 04:00:00 7.7 0 Calma 8 Noroeste 1 -- -- 89
2019-06-11 03:00:00 8.2 5 Sudoeste 9 Oeste 0.2 -- -- 82
2019-06-11 02:00:00 9.5 6 Noroeste 11 Noroeste 0 -- -- 69
2019-06-11 01:00:00 10.4 6 Norte 17 Nordeste 0 -- -- 65
2019-06-11 00:00:00 11.1 9 Norte 33 Noroeste 0 -- -- 60
2019-06-10 23:00:00 11 18 Noroeste 40 Norte 0 -- -- 60
2019-06-10 22:00:00 11 17 Norte 45 Noroeste 0 -- -- 61
2019-06-10 21:00:00 11.2 19 Noroeste 43 Norte 0 -- -- 61
2019-06-10 20:00:00 11.5 20 Noroeste 41 Noroeste 0 -- -- 61
2019-06-10 19:00:00 12.6 14 Noroeste 39 Norte 0 -- -- 61
2019-06-10 18:00:00 13.9 19 Norte 38 Nordeste 0 -- -- 58
2019-06-10 17:00:00 16.3 11 Norte 28 Oeste 0 -- -- 54
2019-06-10 16:00:00 17.1 17 Oeste 33 Sudoeste 0 -- -- 51
2019-06-10 15:00:00 17.7 15 Oeste 29 Noroeste 0 -- -- 53
2019-06-10 14:00:00 18.1 9 Este 25 Nordeste 0 -- -- 53
2019-06-10 13:00:00 17 17 Nordeste 30 Nordeste 0 -- -- 54
2019-06-10 12:00:00 16.2 15 Nordeste 27 Norte 0 -- -- 56
2019-06-10 11:00:00 15.7 10 Norte 24 Norte 0 -- -- 57
2019-06-10 10:00:00 15.1 5 Nordeste 14 Nordeste 0 -- -- 59
2019-06-10 09:00:00 12.8 7 Sur 13 Sur 0 -- -- 77
2019-06-10 08:00:00 10.3 6 Sudoeste 18 Norte 0 -- -- 85
2019-06-10 07:00:00 10.2 6 Norte 26 Noroeste 0 -- -- 75
2019-06-10 06:00:00 11.2 13 Nordeste 33 Nordeste 0 -- -- 74
2019-06-10 05:00:00 11.6 14 Norte 35 Nordeste 0 -- -- 69
2019-06-10 04:00:00 12.1 15 Norte 34 Nordeste 0 -- -- 68
2019-06-10 03:00:00 11.7 9 Nordeste 46 Noroeste 0.2 -- -- 79
2019-06-10 02:00:00 13.1 23 Noroeste 43 Norte 0 -- -- 66
2019-06-10 01:00:00 13.8 21 Noroeste 40 Norte 0 -- -- 66
2019-06-10 00:00:00 14.3 15 Norte 47 Noroeste 0 -- -- 65
2019-06-09 23:00:00 14.2 21 Norte 45 Noroeste 0 -- -- 70
2019-06-09 22:00:00 15.7 18 Noroeste 41 Norte 0 -- -- 65
2019-06-09 21:00:00 16.3 18 Noroeste 37 Norte 0 -- -- 65
2019-06-09 20:00:00 17.8 17 Norte 39 Norte 0 -- -- 60
2019-06-09 19:00:00 20.3 19 Nordeste 31 Nordeste 0 -- -- 51
2019-06-09 18:00:00 23 4 Sudeste 18 Sudoeste 0 -- -- 34
2019-06-09 17:00:00 23.4 5 Sudoeste 28 Sudoeste 0 -- -- 37
2019-06-09 16:00:00 23.3 5 Sur 25 Sur 0 -- -- 36
2019-06-09 15:00:00 23.3 6 Sudeste 22 Sur 0 -- -- 36
2019-06-09 14:00:00 23 13 Sudoeste 24 Sur 0 -- -- 43
2019-06-09 13:00:00 22.3 8 Sur 22 Sur 0 -- -- 42
2019-06-09 12:00:00 20.4 11 Sudeste 19 Sur 0 -- -- 48
2019-06-09 11:00:00 18.4 6 Sudoeste 17 Oeste 0 -- -- 55
2019-06-09 10:00:00 16.8 10 Sudoeste 19 Sudoeste 0 -- -- 59
2019-06-09 09:00:00 14.4 4 Sur 6 Sur 0 -- -- 70
2019-06-09 08:00:00 14.2 0 Calma 6 Noroeste 0 -- -- 69
2019-06-09 07:00:00 14.4 2 Nordeste 7 Oeste 0 -- -- 64
2019-06-09 06:00:00 15.2 2 Este 11 Sur 0 -- -- 58
2019-06-09 05:00:00 16.6 9 Sudoeste 24 Sudoeste 0 -- -- 51
2019-06-09 04:00:00 17 12 Sudoeste 27 Sudoeste 0 -- -- 51
2019-06-09 03:00:00 17 14 Sudoeste 27 Sudoeste 0 -- -- 51
2019-06-09 02:00:00 17 12 Sudoeste 30 Sudoeste 0 -- -- 54
2019-06-09 01:00:00 17.1 14 Sudoeste 25 Sudoeste 0 -- -- 54
2019-06-09 00:00:00 17.8 13 Sur 26 Sudoeste 0 -- -- 52
2019-06-08 23:00:00 17.7 9 Sudoeste 17 Sur 0 -- -- 52
2019-06-08 22:00:00 16.8 3 Sudoeste 9 Norte 0 -- -- 57
2019-06-08 21:00:00 18.5 4 Nordeste 16 Sudoeste 0 -- -- 54
2019-06-08 20:00:00 19.9 11 Sudoeste 26 Sudoeste 0 -- -- 43
2019-06-08 19:00:00 21.2 7 Sudoeste 21 Sudoeste 0 -- -- 42
2019-06-08 18:00:00 22.4 7 Sur 23 Sudoeste 0 -- -- 37
2019-06-08 17:00:00 21.7 13 Sudoeste 28 Sudoeste 0 -- -- 37
2019-06-08 16:00:00 22.2 14 Sudoeste 32 Sudoeste 0 -- -- 35
2019-06-08 15:00:00 21.9 15 Sudoeste 34 Sudoeste 0 -- -- 33
2019-06-08 14:00:00 21.1 14 Sudoeste 33 Sudoeste 0 -- -- 38
2019-06-08 13:00:00 19.9 17 Sur 39 Sudoeste 0 -- -- 37
2019-06-08 12:00:00 19.2 14 Sur 26 Sudoeste 0 -- -- 37
2019-06-08 11:00:00 17.5 13 Sudoeste 24 Sudoeste 0 -- -- 43
2019-06-08 10:00:00 12.5 5 Nordeste 9 Nordeste 0 -- -- 61
2019-06-08 09:00:00 7.7 3 Este 6 Este 0 -- -- 79
2019-06-08 08:00:00 3.6 0 Calma 5 Oeste 0 -- -- 95
2019-06-08 07:00:00 2.5 2 Sur 5 Sudoeste 0 -- -- 92
2019-06-08 06:00:00 2.9 0 Calma 5 Sudoeste 0 -- -- 91
2019-06-08 05:00:00 3.4 3 Oeste 9 Norte 0 -- -- 90
2019-06-08 04:00:00 4 4 Oeste 5 Oeste 0 -- -- 89
2019-06-08 03:00:00 4.8 3 Oeste 19 Nordeste 0 -- -- 86
2019-06-08 02:00:00 5 0 Calma 4 Oeste 0 -- -- 84
2019-06-08 01:00:00 6.6 2 Nordeste 5 Nordeste 0 -- -- 76
2019-06-08 00:00:00 8.1 2 Oeste 14 Norte 0 -- -- 71
2019-06-07 23:00:00 10.4 7 Norte 21 Noroeste 0 -- -- 58
2019-06-07 22:00:00 11.1 12 Norte 22 Norte 0 -- -- 59
2019-06-07 21:00:00 12.1 12 Norte 15 Nordeste 0 -- -- 52
2019-06-07 20:00:00 15.9 5 Norte 15 Oeste 0 -- -- 36
2019-06-07 19:00:00 17 7 Oeste 23 Noroeste 0 -- -- 32
2019-06-07 18:00:00 17.3 9 Oeste 22 Noroeste 0 -- -- 29
2019-06-07 17:00:00 17.1 13 Sudoeste 30 Sur 0 -- -- 36
2019-06-07 16:00:00 16.1 6 Sudoeste 26 Sudoeste 0 -- -- 43
2019-06-07 15:00:00 15.6 5 Sudoeste 22 Sudoeste 0 -- -- 44
2019-06-07 14:00:00 15.5 12 Oeste 28 Oeste 0 -- -- 42
2019-06-07 13:00:00 14 5 Sur 12 Sudoeste 0 -- -- 48
2019-06-07 12:00:00 13.3 5 Sudeste 14 Sur 0 -- -- 54
2019-06-07 11:00:00 12.6 7 Sudeste 13 Sudeste 0 -- -- 66
2019-06-07 10:00:00 11 4 Sur 8 Sudoeste 0 -- -- 76
2019-06-07 09:00:00 9.1 3 Sudoeste 28 Noroeste 0 -- -- 85
2019-06-07 08:00:00 8.9 7 Oeste 44 Oeste 6 -- -- 82
2019-06-07 07:00:00 12.4 18 Sudoeste 35 Sudeste 1 -- -- 80
2019-06-07 06:00:00 14.1 15 Sur 48 Sur 0 -- -- 67
2019-06-07 05:00:00 14.6 16 Sur 48 Sudeste 0 -- -- 62
2019-06-07 04:00:00 14.7 14 Sur 48 Sur 0 -- -- 60
2019-06-07 03:00:00 15.1 26 Sudeste 50 Sudeste 0 -- -- 56
2019-06-07 02:00:00 15.2 27 Sudeste 54 Sudeste 0 -- -- 54
2019-06-07 01:00:00 15.4 21 Sur 52 Sur 0 -- -- 54
2019-06-07 00:00:00 15.7 22 Sur 51 Sur 0 -- -- 53
2019-06-06 23:00:00 15.8 22 Sur 51 Sur 0 -- -- 53
2019-06-06 22:00:00 16.2 23 Sur 49 Sudeste 0 -- -- 53
2019-06-06 21:00:00 17.3 20 Sur 44 Sudeste 0 -- -- 52
2019-06-06 20:00:00 18.2 17 Sur 39 Sur 0 -- -- 47
2019-06-06 19:00:00 18.3 20 Sur 45 Sudoeste 0 -- -- 42
2019-06-06 18:00:00 19.4 17 Sur 51 Sur 0 -- -- 39
2019-06-06 17:00:00 19.3 17 Sur 43 Sudoeste 0 -- -- 37
2019-06-06 16:00:00 19.5 27 Sudoeste 47 Sur 0 -- -- 35
2019-06-06 15:00:00 18.5 19 Sur 54 Sudoeste 0 -- -- 38
2019-06-06 14:00:00 18 22 Sudoeste 48 Sudoeste 0 -- -- 43
2019-06-06 13:00:00 17.4 20 Sur 42 Sudoeste 0 -- -- 48
2019-06-06 12:00:00 16.6 18 Sudoeste 34 Sudoeste 0 -- -- 51
2019-06-06 11:00:00 14.4 17 Sudoeste 28 Oeste 0 -- -- 56
2019-06-06 10:00:00 10.2 2 Sudeste 5 Este 0 -- -- 77
2019-06-06 09:00:00 7.6 0 Calma 4 Sudoeste 0 -- -- 92
2019-06-06 08:00:00 6.1 2 Este 4 Sudeste 0 -- -- 95
2019-06-06 07:00:00 5.3 2 Este 4 Este 0 -- -- 95
2019-06-06 06:00:00 5 0 Calma 5 Noroeste 0 -- -- 94
2019-06-06 05:00:00 5.3 0 Calma 4 Sur 0 -- -- 93
2019-06-06 04:00:00 5.5 0 Calma 4 Nordeste 0 -- -- 92
2019-06-06 03:00:00 5.9 0 Calma 5 Sudoeste 0 -- -- 92
2019-06-06 02:00:00 6 0 Calma 8 Noroeste 0 -- -- 91
2019-06-06 01:00:00 6.1 0 Calma 8 Sudoeste 0 -- -- 89
2019-06-06 00:00:00 7.2 2 Este 17 Norte 0 -- -- 80
2019-06-05 23:00:00 9.3 6 Sudoeste 22 Noroeste 0 -- -- 72
2019-06-05 22:00:00 9.7 13 Noroeste 30 Noroeste 0 -- -- 69
2019-06-05 21:00:00 10.2 15 Noroeste 31 Noroeste 0 -- -- 67
2019-06-05 20:00:00 11.4 14 Noroeste 27 Noroeste 0 -- -- 68
2019-06-05 19:00:00 11.8 10 Noroeste 31 Noroeste 0 -- -- 63
2019-06-05 18:00:00 12.2 13 Noroeste 36 Noroeste 0 -- -- 62
2019-06-05 17:00:00 12.7 20 Noroeste 35 Noroeste 0 -- -- 61
2019-06-05 16:00:00 12.8 14 Noroeste 34 Noroeste 0 -- -- 60
2019-06-05 15:00:00 12.8 7 Norte 31 Nordeste 0 -- -- 59
2019-06-05 14:00:00 11.9 15 Norte 35 Nordeste 0 -- -- 64
2019-06-05 13:00:00 10.1 11 Noroeste 41 Este 0.6 -- -- 80
2019-06-05 12:00:00 7 12 Norte 33 Noroeste 3.4 -- -- 85
2019-06-05 11:00:00 8.1 12 Noroeste 41 Oeste 11.6 -- -- 85
2019-06-05 10:00:00 9.9 6 Noroeste 21 Sudoeste 7.6 -- -- 93
2019-06-05 09:00:00 9.9 8 Norte 19 Nordeste 2.8 -- -- 90
2019-06-05 08:00:00 9.6 4 Norte 19 Oeste 7.2 -- -- 94
2019-06-05 07:00:00 9.9 12 Oeste 41 Oeste 5.2 -- -- 90
2019-06-05 06:00:00 10.6 4 Sur 15 Sudoeste 1.6 -- -- 93
2019-06-05 05:00:00 11.1 6 Oeste 22 Oeste 0.8 -- -- 91
2019-06-05 04:00:00 12.1 0 Calma 4 Sur 0 -- -- 93
2019-06-05 03:00:00 12 3 Sur 6 Sur 0 -- -- 92
2019-06-05 02:00:00 12.5 2 Sudeste 12 Oeste 0 -- -- 91
2019-06-05 01:00:00 13.6 4 Noroeste 16 Norte 0 -- -- 89
2019-06-05 00:00:00 13.9 7 Norte 21 Oeste 0.6 -- -- 85
2019-06-04 23:00:00 14.4 4 Noroeste 28 Norte 0.6 -- -- 86
2019-06-04 22:00:00 14.4 15 Norte 37 Noroeste 1.6 -- -- 85
2019-06-04 21:00:00 17.5 17 Noroeste 39 Norte 0 -- -- 64
2019-06-04 20:00:00 20.5 23 Noroeste 46 Noroeste 0 -- -- 52
2019-06-04 19:00:00 26.1 16 Sur 37 Sur 0 -- -- 30
2019-06-04 18:00:00 26.8 10 Sur 40 Sur 0 -- -- 30
2019-06-04 17:00:00 27 22 Sur 44 Sudoeste 0 -- -- 29
2019-06-04 16:00:00 27.2 17 Sur 41 Sudoeste 0 -- -- 29
2019-06-04 15:00:00 27.2 13 Sur 35 Sudoeste 0 -- -- 30
2019-06-04 14:00:00 27.1 15 Sur 38 Sur 0 -- -- 31
2019-06-04 13:00:00 26.7 15 Sur 36 Sur 0 -- -- 29
2019-06-04 12:00:00 25.9 17 Sur 35 Sur 0 -- -- 30
2019-06-04 11:00:00 24.9 20 Sudoeste 36 Sudoeste 0 -- -- 34
2019-06-04 10:00:00 21.6 14 Sudoeste 24 Sudoeste 0 -- -- 45
2019-06-04 09:00:00 17.6 2 Este 6 Este 0 -- -- 65
2019-06-04 08:00:00 13.3 0 Calma 6 Este 0 -- -- 73
2019-06-04 07:00:00 13.9 0 Calma 5 Nordeste 0 -- -- 67
2019-06-04 06:00:00 15.6 0 Calma 5 Sudeste 0 -- -- 58
2019-06-04 05:00:00 15.6 3 Nordeste 8 Sudoeste 0 -- -- 59
2019-06-04 04:00:00 16 2 Nordeste 7 Nordeste 0 -- -- 59
2019-06-04 03:00:00 16.9 4 Nordeste 12 Oeste 0 -- -- 59
2019-06-04 02:00:00 18.1 3 Sudeste 13 Oeste 0 -- -- 58
2019-06-04 01:00:00 17.8 3 Norte 6 Nordeste 0 -- -- 58
2019-06-04 00:00:00 17.7 2 Nordeste 7 Nordeste 0 -- -- 58
2019-06-03 23:00:00 18.7 3 Nordeste 6 Nordeste 0 -- -- 57
2019-06-03 22:00:00 20.6 0 Calma 8 Sur 0 -- -- 51
2019-06-03 21:00:00 24.3 5 Sudoeste 17 Sudoeste 0 -- -- 37
2019-06-03 20:00:00 26.7 11 Sudoeste 26 Sudoeste 0 -- -- 33
2019-06-03 19:00:00 27.1 10 Sur 26 Sudoeste 0 -- -- 32
2019-06-03 18:00:00 27.8 9 Sur 27 Sur 0 -- -- 29
2019-06-03 17:00:00 27.4 10 Sudoeste 27 Sudoeste 0 -- -- 32
2019-06-03 16:00:00 27.6 10 Sur 26 Sur 0 -- -- 36
2019-06-03 15:00:00 27.7 15 Sudoeste 32 Sudoeste 0 -- -- 36
2019-06-03 14:00:00 26.8 16 Sudoeste 29 Sur 0 -- -- 35
2019-06-03 13:00:00 26.7 16 Sudoeste 29 Sur 0 -- -- 35
2019-06-03 12:00:00 25.3 17 Sudoeste 34 Sudoeste 0 -- -- 41
2019-06-03 11:00:00 20.5 4 Este 6 Este 0 -- -- 63
2019-06-03 10:00:00 17.8 2 Sudeste 8 Nordeste 0 -- -- 73
2019-06-03 09:00:00 15.5 8 Noroeste 14 Noroeste 0 -- -- 78
2019-06-03 08:00:00 14.8 4 Norte 13 Sudoeste 0 -- -- 78
2019-06-03 07:00:00 14.9 12 Norte 25 Norte 0 -- -- 72
2019-06-03 06:00:00 12.4 2 Nordeste 6 Oeste 0 -- -- 83
2019-06-03 05:00:00 12.4 2 Nordeste 10 Noroeste 0 -- -- 85
2019-06-03 04:00:00 13.3 2 Sudoeste 8 Norte 0 -- -- 81
2019-06-03 03:00:00 14.3 2 Norte 8 Sudoeste 0 -- -- 78
2019-06-03 02:00:00 15.2 2 Sur 10 Nordeste 0 -- -- 78
2019-06-03 01:00:00 16.7 2 Sudeste 8 Nordeste 0 -- -- 73
2019-06-03 00:00:00 18.1 8 Norte 14 Norte 0 -- -- 66
2019-06-02 23:00:00 19 0 Calma 9 Nordeste 0 -- -- 62
2019-06-02 22:00:00 20.6 4 Este 14 Nordeste 0 -- -- 57
2019-06-02 21:00:00 23.4 4 Nordeste 9 Sudoeste 0 -- -- 48
2019-06-02 20:00:00 27.4 5 Sudoeste 17 Sudoeste 0 -- -- 33
2019-06-02 19:00:00 28.9 7 Sudoeste 27 Sudoeste 0 -- -- 30
2019-06-02 18:00:00 29.1 9 Sur 24 Sudoeste 0 -- -- 30
2019-06-02 17:00:00 29.5 9 Sur 24 Sudoeste 0 -- -- 29
2019-06-02 16:00:00 29.4 5 Sudoeste 22 Sudoeste 0 -- -- 28
2019-06-02 15:00:00 29 7 Sur 18 Sur 0 -- -- 28
2019-06-02 14:00:00 28.5 6 Sudoeste 19 Sudoeste 0 -- -- 32
2019-06-02 13:00:00 27.8 6 Sur 19 Sur 0 -- -- 32
2019-06-02 12:00:00 26.6 6 Sudoeste 15 Sudoeste 0 -- -- 32
2019-06-02 11:00:00 23.6 3 Sur 9 Nordeste 0 -- -- 47
2019-06-02 10:00:00 19.2 3 Este 8 Este 0 -- -- 61
2019-06-02 09:00:00 14.5 4 Este 6 Este 0 -- -- 72
2019-06-02 08:00:00 10.1 0 Calma 4 Nordeste 0 -- -- 90
2019-06-02 07:00:00 9 0 Calma 5 Sudoeste 0 -- -- 86
2019-06-02 06:00:00 9.4 0 Calma 4 Sudoeste 0 -- -- 87
2019-06-02 05:00:00 10.1 2 Sudoeste 4 Sudoeste 0 -- -- 82
2019-06-02 04:00:00 10.6 0 Calma 3 Sudoeste 0 -- -- 83
2019-06-02 03:00:00 11.2 0 Calma 4 Sudoeste 0 -- -- 81
2019-06-02 02:00:00 12.2 0 Calma 6 Oeste 0 -- -- 77
2019-06-02 01:00:00 13.4 2 Sur 5 Sudoeste 0 -- -- 75
2019-06-02 00:00:00 15.1 0 Calma 2 Sudeste 0 -- -- 69
2019-06-01 23:00:00 16.7 0 Calma 5 Sur 0 -- -- 63
2019-06-01 22:00:00 18.6 2 Este 12 Norte 0 -- -- 57
2019-06-01 21:00:00 22.4 4 Nordeste 13 Sudoeste 0 -- -- 47
2019-06-01 20:00:00 26.8 8 Sudoeste 17 Sudoeste 0 -- -- 32
2019-06-01 19:00:00 27.7 9 Sudoeste 19 Sur 0 -- -- 31
2019-06-01 18:00:00 27.9 10 Sur 21 Sudoeste 0 -- -- 30
2019-06-01 17:00:00 27.8 8 Sudoeste 19 Sudoeste 0 -- -- 32
2019-06-01 16:00:00 27.4 6 Sur 18 Sudoeste 0 -- -- 32
2019-06-01 15:00:00 27.1 9 Sur 21 Sudoeste 0 -- -- 33
2019-06-01 14:00:00 26.1 8 Sudoeste 23 Sudoeste 0 -- -- 35
2019-06-01 13:00:00 25.1 5 Sur 18 Sudoeste 0 -- -- 37
2019-06-01 12:00:00 24.6 7 Sudoeste 19 Sudoeste 0 -- -- 42
2019-06-01 11:00:00 22.7 6 Sudoeste 15 Sur 0 -- -- 49
2019-06-01 10:00:00 18.5 4 Este 8 Nordeste 0 -- -- 67
2019-06-01 09:00:00 14.2 3 Este 5 Este 0 -- -- 82
2019-06-01 08:00:00 10.4 0 Calma 4 Nordeste 0 -- -- 94
2019-06-01 07:00:00 9.6 0 Calma 4 Noroeste 0 -- -- 92
2019-06-01 06:00:00 9.9 0 Calma 4 Sur 0 -- -- 91
2019-06-01 05:00:00 10.7 2 Sudoeste 5 Sudoeste 0 -- -- 90
2019-06-01 04:00:00 11.5 0 Calma 4 Sur 0 -- -- 88
2019-06-01 03:00:00 12.2 0 Calma 3 Sur 0 -- -- 88
2019-06-01 02:00:00 12.8 0 Calma 5 Sudoeste 0 -- -- 86
2019-06-01 01:00:00 14.2 0 Calma 3 Sudoeste 0 -- -- 81
2019-06-01 00:00:00 15.4 0 Calma 5 Sur 0 -- -- 77
2019-05-31 23:00:00 17.2 2 Nordeste 14 Norte 0 -- -- 71
2019-05-31 22:00:00 18.5 4 Nordeste 9 Norte 0 -- -- 68
2019-05-31 21:00:00 22.7 3 Nordeste 16 Oeste 0 -- -- 52
2019-05-31 20:00:00 25.3 8 Oeste 24 Oeste 0 -- -- 44
2019-05-31 19:00:00 25.7 15 Oeste 24 Noroeste 0 -- -- 44
2019-05-31 18:00:00 26.5 8 Sudoeste 23 Oeste 0 -- -- 39
2019-05-31 17:00:00 26.4 7 Sur 22 Sudoeste 0 -- -- 38
2019-05-31 16:00:00 25.9 9 Sur 21 Sudoeste 0 -- -- 35
2019-05-31 15:00:00 25.2 9 Sur 21 Sur 0 -- -- 35
2019-05-31 14:00:00 24.2 7 Sur 17 Sudoeste 0 -- -- 39
2019-05-31 13:00:00 23.4 7 Sur 15 Sudoeste 0 -- -- 38
2019-05-31 12:00:00 22.2 6 Sudeste 13 Sur 0 -- -- 40
2019-05-31 11:00:00 20.6 6 Sur 12 Sur 0 -- -- 43
2019-05-31 10:00:00 15.9 4 Este 9 Nordeste 0 -- -- 48
2019-05-31 09:00:00 11.1 2 Sudeste 5 Sudeste 0 -- -- 68
2019-05-31 08:00:00 6.5 0 Calma 5 Este 0 -- -- 84
2019-05-31 07:00:00 5.2 0 Calma 4 Sudoeste 0 -- -- 82
2019-05-31 06:00:00 5.8 0 Calma 5 Sudoeste 0 -- -- 79
2019-05-31 05:00:00 6.8 0 Calma 4 Nordeste 0 -- -- 76
2019-05-31 04:00:00 7.3 0 Calma 6 Sudoeste 0 -- -- 76
2019-05-31 03:00:00 8 3 Sur 12 Norte 0 -- -- 74
2019-05-31 02:00:00 9.6 4 Sudoeste 7 Oeste 0 -- -- 67
2019-05-31 01:00:00 11.4 3 Oeste 8 Sudoeste 0 -- -- 63
2019-05-31 00:00:00 13.9 6 Sudoeste 22 Noroeste 0 -- -- 59
2019-05-30 23:00:00 18.2 10 Nordeste 30 Nordeste 0 -- -- 42
2019-05-30 22:00:00 17.9 14 Norte 40 Norte 0 -- -- 52
2019-05-30 21:00:00 18.6 15 Norte 40 Norte 0 -- -- 52
2019-05-30 20:00:00 20.4 17 Norte 37 Nordeste 0 -- -- 47
2019-05-30 19:00:00 22.7 12 Norte 32 Norte 0 -- -- 35
2019-05-30 18:00:00 23.8 12 Nordeste 30 Nordeste 0 -- -- 31
2019-05-30 17:00:00 24.3 11 Norte 31 Nordeste 0 -- -- 29
2019-05-30 16:00:00 24.1 18 Nordeste 33 Nordeste 0 -- -- 29
2019-05-30 15:00:00 23.2 21 Nordeste 33 Nordeste 0 -- -- 31
2019-05-30 14:00:00 23.5 16 Nordeste 31 Nordeste 0 -- -- 30
2019-05-30 13:00:00 22.8 9 Nordeste 21 Norte 0 -- -- 31
2019-05-30 12:00:00 21.3 10 Sudoeste 21 Sudoeste 0 -- -- 42
2019-05-30 11:00:00 18.6 6 Sur 13 Sur 0 -- -- 48
2019-05-30 10:00:00 15.2 8 Sudoeste 13 Sudoeste 0 -- -- 57
2019-05-30 09:00:00 9.9 3 Sur 7 Nordeste 0 -- -- 73
2019-05-30 08:00:00 5.4 2 Sudeste 5 Sudoeste 0 -- -- 92
2019-05-30 07:00:00 4.4 0 Calma 6 Nordeste 0 -- -- 89
2019-05-30 06:00:00 5.1 0 Calma 8 Oeste 0 -- -- 88
2019-05-30 05:00:00 5.9 4 Sudoeste 12 Oeste 0 -- -- 85
2019-05-30 04:00:00 6.9 6 Sudoeste 21 Sudoeste 0 -- -- 82
2019-05-30 03:00:00 8.2 10 Sudoeste 20 Sudoeste 0 -- -- 76
2019-05-30 02:00:00 11.6 8 Sur 37 Nordeste 0 -- -- 61
2019-05-30 01:00:00 14 14 Norte 40 Nordeste 0 -- -- 49
2019-05-30 00:00:00 13.9 17 Norte 38 Norte 0 -- -- 49
2019-05-29 23:00:00 13.8 17 Norte 39 Norte 0 -- -- 49
2019-05-29 22:00:00 12.7 19 Norte 48 Nordeste 0 -- -- 54
2019-05-29 21:00:00 12.8 20 Norte 50 Nordeste 0 -- -- 54
2019-05-29 20:00:00 13.8 19 Norte 50 Norte 0 -- -- 51
2019-05-29 19:00:00 14.2 23 Norte 53 Noroeste 0 -- -- 50
2019-05-29 18:00:00 14.6 23 Norte 57 Noroeste 0 -- -- 47
2019-05-29 17:00:00 14.3 23 Norte 51 Nordeste 0 -- -- 50
2019-05-29 16:00:00 14.6 19 Norte 50 Norte 0 -- -- 47
2019-05-29 15:00:00 14.2 18 Norte 50 Norte 0 -- -- 45
2019-05-29 14:00:00 13.6 22 Norte 62 Nordeste 0 -- -- 47
2019-05-29 13:00:00 13.4 19 Norte 51 Nordeste 0 -- -- 48
2019-05-29 12:00:00 12.3 30 Nordeste 54 Nordeste 0 -- -- 51
2019-05-29 11:00:00 12.2 24 Nordeste 45 Nordeste 0 -- -- 51
2019-05-29 10:00:00 11.4 25 Nordeste 46 Nordeste 0 -- -- 52
2019-05-29 09:00:00 10.6 24 Nordeste 46 Nordeste 0 -- -- 52
2019-05-29 08:00:00 8.5 12 Norte 32 Nordeste 0 -- -- 60
2019-05-29 07:00:00 8 10 Norte 31 Noroeste 0 -- -- 61
2019-05-29 06:00:00 8.3 13 Norte 37 Nordeste 0 -- -- 64
2019-05-29 05:00:00 7.9 10 Noroeste 34 Norte 0 -- -- 69
2019-05-29 04:00:00 7.2 9 Noroeste 26 Norte 0 -- -- 74
2019-05-29 03:00:00 8.2 12 Noroeste 26 Noroeste 0 -- -- 66
2019-05-29 02:00:00 7.9 14 Noroeste 31 Norte 0 -- -- 66
2019-05-29 01:00:00 7.9 12 Noroeste 22 Norte 0.2 -- -- 75
2019-05-29 00:00:00 7.8 10 Norte 22 Norte 0.2 -- -- 77
2019-05-28 23:00:00 8.5 10 Noroeste 22 Norte 0 -- -- 70
2019-05-28 22:00:00 8.6 10 Norte 26 Noroeste 0 -- -- 70
2019-05-28 21:00:00 9.7 10 Noroeste 28 Nordeste 0 -- -- 65
2019-05-28 20:00:00 10.7 13 Nordeste 32 Nordeste 0 -- -- 62
2019-05-28 19:00:00 11.7 21 Norte 45 Nordeste 0 -- -- 56
2019-05-28 18:00:00 12.3 13 Norte 33 Noroeste 0 -- -- 51
2019-05-28 17:00:00 11.5 19 Noroeste 45 Noroeste 0 -- -- 60
2019-05-28 16:00:00 12.3 22 Nordeste 49 Nordeste 0 -- -- 57
2019-05-28 15:00:00 13.1 25 Nordeste 48 Nordeste 0 -- -- 50
2019-05-28 14:00:00 13.7 21 Norte 51 Nordeste 0 -- -- 52
2019-05-28 13:00:00 13.4 27 Nordeste 55 Nordeste 0 -- -- 52
2019-05-28 12:00:00 13.5 22 Nordeste 54 Nordeste 0 -- -- 52
2019-05-28 11:00:00 12.8 25 Nordeste 54 Nordeste 0 -- -- 51
2019-05-28 10:00:00 11.6 26 Nordeste 49 Nordeste 0 -- -- 54
2019-05-28 09:00:00 11 21 Norte 49 Nordeste 0 -- -- 54
2019-05-28 08:00:00 10.2 21 Norte 49 Norte 0 -- -- 53
2019-05-28 07:00:00 9.3 22 Norte 54 Nordeste 0 -- -- 54
2019-05-28 06:00:00 9.7 19 Norte 48 Norte 0 -- -- 56
2019-05-28 05:00:00 9.7 26 Norte 51 Noroeste 0 -- -- 55
2019-05-28 04:00:00 10 23 Norte 53 Norte 0 -- -- 50
2019-05-28 03:00:00 10.7 17 Norte 50 Norte 0 -- -- 47
2019-05-28 02:00:00 10.8 20 Norte 51 Nordeste 0 -- -- 53
2019-05-28 01:00:00 11.5 19 Noroeste 44 Noroeste 0 -- -- 48
2019-05-28 00:00:00 11.2 23 Norte 48 Norte 0 -- -- 56
2019-05-27 23:00:00 11.9 15 Norte 42 Norte 0 -- -- 63
2019-05-27 22:00:00 12.7 13 Noroeste 31 Oeste 0 -- -- 65
2019-05-27 21:00:00 14.3 9 Noroeste 33 Nordeste 0 -- -- 63
2019-05-27 20:00:00 15.7 15 Norte 46 Nordeste 0 -- -- 57
2019-05-27 19:00:00 16.5 17 Norte 41 Noroeste 0 -- -- 55
2019-05-27 18:00:00 16.3 18 Norte 45 Nordeste 0 -- -- 58
2019-05-27 17:00:00 17.6 24 Nordeste 44 Nordeste 0 -- -- 54
2019-05-27 16:00:00 18.6 24 Nordeste 42 Nordeste 0 -- -- 53
2019-05-27 15:00:00 19.5 22 Nordeste 46 Nordeste 0 -- -- 48
2019-05-27 14:00:00 19.4 19 Nordeste 42 Nordeste 0 -- -- 48
2019-05-27 13:00:00 19.1 18 Nordeste 40 Norte 0 -- -- 51
2019-05-27 12:00:00 18.7 10 Nordeste 36 Noroeste 0 -- -- 52
2019-05-27 11:00:00 15.9 9 Sudoeste 22 Sudoeste 0 -- -- 63
2019-05-27 10:00:00 13.8 9 Sudoeste 21 Sudoeste 0 -- -- 68
2019-05-27 09:00:00 10.8 10 Sudoeste 26 Sudoeste 0 -- -- 78
2019-05-27 08:00:00 6.8 9 Sudoeste 22 Sudoeste 0 -- -- 94
2019-05-27 07:00:00 5.4 6 Sudoeste 15 Sudoeste 0 -- -- 93
2019-05-27 06:00:00 5.8 5 Sudoeste 13 Sudoeste 0 -- -- 92
2019-05-27 05:00:00 6.4 5 Sudoeste 17 Sudoeste 0 -- -- 90
2019-05-27 04:00:00 7.3 9 Sur 18 Sudoeste 0 -- -- 87
2019-05-27 03:00:00 10.7 5 Nordeste 37 Nordeste 0 -- -- 71
2019-05-27 02:00:00 12.3 13 Norte 33 Noroeste 0 -- -- 62
2019-05-27 01:00:00 12.9 14 Noroeste 35 Nordeste 0 -- -- 60
2019-05-27 00:00:00 13.3 12 Norte 40 Norte 0 -- -- 60